Aérodrome :
LOGIN :

S'inscrire | Disclaimer

   EN    FR    IT 

 










Légende :    VFR   VFR Marginal   IFR   IFR Intensif   IFR Très Intensif
Visi : 
Plafond : 
>= 8 km
>= 3000ft
5 à 8 km
1000 à 3000 ft
1500m à 5 km
500 à 1000 ft
800 à 1500m
200 à 500 ft
< 800m
< 200 ft
Symboles :   Orages  Brouillard  Fortes neiges  Fortes précipitations  Vent > 20 kt
SIGMETs :   Divers  Orages  Givrage  Turbulence  Onde Orograph.  Cendres Volcan.







- Altitude de l'aérodrome : 2945 ft
- Code IATA : RGS


LEBG - Burgos

DERNIER METAR :
  • 231930Z AUTO 00000KT 0350 0300 R22/0800N R04/0325N FG VV002 05/05 Q1030

METARs EXPIRÉS :
  • 231900Z 00000KT 0350 R22/1100U R04/1000U FG VV002 05/05 Q1030
  • 231830Z 00000KT 0300 R22/0800N R04/1200U FG VV002 05/05 Q1030
  • 231808Z 00000KT 0450 R22/1100D R04/1200U FG VV002 05/05 Q1030
  • 231800Z 00000KT 0900 R22/1900N R04/1400D FG OVC002 05/05 Q1030
  • 231749Z 00000KT 1000 R22/1900N R04/1900D BR OVC002 05/05 Q1030
  • 231730Z VRB01KT 3000 BR OVC002 05/05 Q1029
  • 231700Z VRB02KT 3500 BR OVC003 06/05 Q1029

TAF TAF LEBG
Valide du 23 à 18h jusqu'au 24 à 03h UTC


231700Z 2318/2403 VRB05KT 6000 OVC006
PROB40
TEMPO 2318/2403 0500 FG VV001
TEMPO 2318/2321 3000 BR OVC004
Pas de NOTAMs connus pour ce terrain.



MET'MAP, la Météo Aéronautique d'un coup d'oeil ! - Copyright ORBIFLY Décembre 2007 - Disclaimer

ORBIFLY MET'MAP TEAM :

Programmation & Développement : Alexandra Zaïnal
Conception & Développement : Baudouin d'Aumeries
Co-Programmation & Développement : Marc-Olivier Méhu
Soutien technique & logistique : Manuel Goepfert

Contact : metmap@orbifly.com




SOURCES & CREDITS :

   NOAA